createdAt,value
2019-05-01T00:04:54.889Z,8.50
2019-05-01T00:10:57.816Z,8.40
2019-05-01T00:17:00.852Z,8.40
2019-05-01T00:23:03.413Z,8.30
2019-05-01T00:29:05.668Z,8.20
2019-05-01T00:35:08.032Z,8.10
2019-05-01T00:41:10.548Z,8.10
2019-05-01T00:47:13.407Z,7.90
2019-05-01T00:53:16.199Z,7.80
2019-05-01T00:59:25.203Z,7.70
2019-05-01T01:05:27.938Z,7.70
2019-05-01T01:11:30.349Z,7.60
2019-05-01T01:17:32.746Z,7.50
2019-05-01T01:23:35.212Z,7.40
2019-05-01T01:29:37.788Z,7.30
2019-05-01T01:35:40.577Z,7.30
2019-05-01T01:41:44.497Z,7.20
2019-05-01T01:48:06.959Z,7.20
2019-05-01T01:54:11.398Z,7.10
2019-05-01T02:00:17.941Z,7.00
2019-05-01T02:06:20.225Z,6.90
2019-05-01T02:12:22.598Z,6.90
2019-05-01T02:18:24.848Z,6.90
2019-05-01T02:24:27.610Z,6.90
2019-05-01T02:30:33.652Z,6.90
2019-05-01T02:36:37.894Z,6.90
2019-05-01T02:42:42.300Z,7.10
2019-05-01T02:48:52.593Z,7.20
2019-05-01T02:54:56.653Z,7.20
2019-05-01T03:00:58.962Z,7.30
2019-05-01T03:07:04.920Z,7.30
2019-05-01T03:13:09.272Z,7.50
2019-05-01T03:19:30.411Z,7.50
2019-05-01T03:25:37.520Z,7.70
2019-05-01T03:31:43.064Z,7.70
2019-05-01T03:37:54.287Z,7.80
2019-05-01T03:44:03.759Z,7.70
2019-05-01T03:50:10.906Z,7.70
2019-05-01T03:56:14.169Z,7.60
2019-05-01T04:08:54.272Z,7.90
2019-05-01T04:15:01.306Z,8.00
2019-05-01T04:21:07.743Z,8.10
2019-05-01T04:27:15.929Z,8.10
2019-05-01T04:33:20.664Z,8.20
2019-05-01T04:39:26.637Z,8.40
2019-05-01T04:51:58.327Z,8.80
2019-05-01T04:58:03.584Z,8.90
2019-05-01T05:04:06.186Z,9.30
2019-05-01T05:10:08.710Z,10.10
2019-05-01T05:16:16.133Z,11.30
2019-05-01T05:22:18.723Z,11.30
2019-05-01T05:28:23.655Z,11.30
2019-05-01T05:34:34.725Z,11.90
2019-05-01T05:41:03.960Z,13.00
2019-05-01T05:47:07.846Z,14.80
2019-05-01T05:53:15.919Z,16.30
2019-05-01T05:59:25.221Z,16.50
2019-05-01T06:05:35.612Z,16.50
2019-05-01T06:11:43.241Z,17.70
2019-05-01T06:17:47.314Z,19.00
2019-05-01T06:24:06.630Z,20.10
2019-05-01T06:30:11.199Z,19.80
2019-05-01T06:36:14.750Z,19.90
2019-05-01T06:42:19.151Z,20.80
2019-05-01T06:48:26.190Z,19.70
2019-05-01T06:54:32.229Z,19.50
2019-05-01T07:00:39.197Z,21.30
2019-05-01T07:06:41.758Z,21.80
2019-05-01T07:12:45.182Z,22.20
2019-05-01T07:18:48.657Z,22.40
2019-05-01T07:24:51.376Z,23.40
2019-05-01T07:30:56.180Z,23.80
2019-05-01T07:36:59.227Z,24.50
2019-05-01T07:43:19.021Z,25.20
2019-05-01T07:49:37.657Z,25.60
2019-05-01T07:55:40.332Z,25.50
2019-05-01T08:01:44.681Z,24.70
2019-05-01T08:07:47.400Z,23.50
2019-05-01T08:13:50.139Z,24.00
2019-05-01T08:19:58.703Z,23.80
2019-05-01T08:26:03.903Z,24.40
2019-05-01T08:32:10.205Z,25.20
2019-05-01T08:38:12.474Z,25.10
2019-05-01T08:44:15.835Z,24.90
2019-05-01T08:50:24.771Z,24.60
2019-05-01T08:56:30.106Z,24.80
2019-05-01T09:02:32.496Z,24.80
2019-05-01T09:08:35.796Z,24.50
2019-05-01T09:14:38.600Z,24.30
2019-05-01T09:20:45.830Z,24.70
2019-05-01T09:27:02.869Z,24.90
2019-05-01T09:33:05.843Z,24.80
2019-05-01T09:39:10.260Z,25.10
2019-05-01T09:45:15.797Z,24.40
2019-05-01T09:51:37.042Z,23.80
2019-05-01T09:57:42.921Z,22.90
2019-05-01T10:03:54.230Z,22.30
2019-05-01T10:09:53.868Z,21.40
2019-05-01T10:15:56.505Z,21.00
2019-05-01T10:22:03.768Z,21.20
2019-05-01T10:28:26.239Z,21.70
2019-05-01T10:34:42.925Z,22.20
2019-05-01T10:40:43.788Z,22.40
2019-05-01T10:46:47.926Z,22.70
2019-05-01T10:52:51.364Z,23.10
2019-05-01T10:58:55.814Z,22.90
2019-05-01T11:04:59.662Z,22.50
2019-05-01T11:11:07.933Z,22.00
2019-05-01T11:17:15.665Z,21.80
2019-05-01T11:23:18.341Z,21.20
2019-05-01T11:29:29.838Z,20.90
2019-05-01T11:35:49.470Z,20.60
2019-05-01T11:41:54.763Z,20.80
2019-05-01T11:47:58.169Z,21.30
2019-05-01T11:54:04.961Z,21.70
2019-05-01T12:00:16.375Z,21.30
2019-05-01T12:06:22.907Z,21.10
2019-05-01T12:12:26.475Z,20.60
2019-05-01T12:18:28.938Z,20.50
2019-05-01T12:24:36.612Z,20.50
2019-05-01T12:30:40.318Z,20.40
2019-05-01T12:36:47.025Z,20.60
2019-05-01T12:42:49.559Z,20.60
2019-05-01T12:48:52.443Z,20.70
2019-05-01T12:54:56.719Z,20.60
2019-05-01T13:00:59.333Z,20.40
2019-05-01T13:07:01.845Z,19.90
2019-05-01T13:13:04.375Z,19.50
2019-05-01T13:19:06.752Z,19.20
2019-05-01T13:25:10.139Z,19.00
2019-05-01T13:31:14.424Z,18.90
2019-05-01T13:37:19.010Z,18.70
2019-05-01T13:43:21.350Z,18.50
2019-05-01T13:49:24.238Z,18.40
2019-05-01T13:55:27.121Z,18.30
2019-05-01T14:01:30.728Z,18.50
2019-05-01T14:07:33.426Z,18.40
2019-05-01T14:13:36.523Z,18.20
2019-05-01T14:19:43.242Z,18.10
2019-05-01T14:26:04.788Z,18.00
2019-05-01T14:32:07.058Z,18.10
2019-05-01T14:38:09.645Z,18.10
2019-05-01T14:44:11.980Z,17.90
2019-05-01T14:50:14.401Z,17.80
2019-05-01T14:56:18.253Z,17.90
2019-05-01T15:02:20.972Z,17.80
2019-05-01T15:08:23.604Z,17.70
2019-05-01T15:14:35.734Z,17.70
2019-05-01T15:20:38.173Z,17.60
2019-05-01T15:26:41.513Z,17.80
2019-05-01T15:32:44.173Z,18.00
2019-05-01T15:38:46.732Z,18.10
2019-05-01T15:44:49.321Z,18.00
2019-05-01T15:50:51.635Z,18.00
2019-05-01T15:56:59.786Z,18.00
2019-05-01T16:03:02.402Z,18.00
2019-05-01T16:09:06.240Z,18.10
2019-05-01T16:15:11.070Z,18.20
2019-05-01T16:21:13.604Z,18.10
2019-05-01T16:27:16.616Z,18.00
2019-05-01T16:33:18.896Z,17.80
2019-05-01T16:39:26.375Z,17.70
2019-05-01T16:45:28.679Z,17.40
2019-05-01T16:51:31.043Z,17.10
2019-05-01T16:57:33.479Z,17.00
2019-05-01T17:03:46.805Z,16.90
2019-05-01T17:10:09.161Z,16.70
2019-05-01T17:16:11.818Z,16.50
2019-05-01T17:22:19.224Z,16.10
2019-05-01T17:28:22.042Z,16.00
2019-05-01T17:34:25.590Z,15.90
2019-05-01T17:40:28.681Z,15.70
2019-05-01T17:46:32.652Z,15.60
2019-05-01T17:52:34.910Z,15.50
2019-05-01T17:58:37.357Z,15.30
2019-05-01T18:04:50.901Z,15.10
2019-05-01T18:11:02.693Z,14.90
2019-05-01T18:17:05.594Z,14.70
2019-05-01T18:23:12.562Z,14.50
2019-05-01T18:29:31.505Z,14.30
2019-05-01T18:35:34.251Z,14.00
2019-05-01T18:41:47.868Z,13.70
2019-05-01T18:47:50.393Z,13.40
2019-05-01T18:53:57.489Z,13.20
2019-05-01T18:59:56.892Z,13.00
2019-05-01T19:05:59.204Z,12.80
2019-05-01T19:12:01.806Z,12.60
2019-05-01T19:18:04.797Z,12.40
2019-05-01T19:24:07.306Z,12.20
2019-05-01T19:30:14.925Z,12.00
2019-05-01T19:36:17.766Z,11.80
2019-05-01T19:42:22.066Z,11.60
2019-05-01T19:48:24.881Z,11.50
2019-05-01T19:54:29.799Z,11.40
2019-05-01T20:00:56.418Z,11.20
2019-05-01T20:07:00.555Z,11.10
2019-05-01T20:13:06.948Z,10.80
2019-05-01T20:19:07.815Z,10.70
2019-05-01T20:25:14.622Z,10.50
2019-05-01T20:31:15.485Z,10.40
2019-05-01T20:37:17.890Z,10.30
2019-05-01T20:43:20.320Z,10.20
2019-05-01T20:49:22.852Z,10.10
2019-05-01T20:55:25.318Z,10.00
2019-05-01T21:01:29.451Z,9.90
2019-05-01T21:07:34.618Z,9.90
2019-05-01T21:13:37.180Z,9.90
2019-05-01T21:19:40.856Z,9.90
2019-05-01T21:25:43.865Z,9.80
2019-05-01T21:31:46.296Z,9.80
2019-05-01T21:37:49.302Z,9.80
2019-05-01T21:43:54.121Z,9.80
2019-05-01T21:49:56.332Z,9.80
2019-05-01T21:56:02.314Z,9.70
2019-05-01T22:02:10.130Z,9.50
2019-05-01T22:08:11.503Z,9.40
2019-05-01T22:14:16.045Z,9.30
2019-05-01T22:20:20.276Z,9.20
2019-05-01T22:26:23.205Z,9.10
2019-05-01T22:32:32.249Z,9.00
2019-05-01T22:38:32.293Z,8.80
2019-05-01T22:44:34.817Z,8.80
2019-05-01T22:50:37.485Z,8.70
2019-05-01T22:56:44.730Z,8.70
2019-05-01T23:02:47.501Z,8.60
2019-05-01T23:08:50.525Z,8.60
2019-05-01T23:14:55.387Z,8.40
2019-05-01T23:20:58.816Z,8.40
2019-05-01T23:27:01.182Z,8.30
2019-05-01T23:33:03.773Z,8.20
2019-05-01T23:39:06.052Z,8.10
2019-05-01T23:45:09.408Z,8.00
2019-05-01T23:51:12.008Z,7.90
2019-05-01T23:57:18.828Z,7.90
